Atlanta, MI

10:21 AM EDT on August 31, 2015 (GMT -0400)
Moon Lake | | Change Station
CLOSE
Current Station
Personal Weather Station
Location: Lewiston, MI
Elevation: 1240 ft
Nearby Weather Stations

Elev 1240 ft 44.84 °N, 84.26 °W | Updated 11 minutes ago

Overcast
Overcast
63.7 °F
Feels Like 63.7 °F
N
0.0
Wind Variable Wind from South
Gusts 0.0 mph

Today
High -- | Low -- °F
--% Chance of Precip.
Yesterday
High -- | Low -- °F
Precip. -- in
6:57 AM 8:15 PM
Waning Gibbous, 95% visible
Pressure 30.05 in
Visibility 1.0 miles
Clouds Overcast 200 ft
Dew Point 62 °F
Humidity 93%
Rainfall 0.00 in
Snow Depth Not available.
UV 1 out of 12
Pollen 10.50 out of 12
Air Quality Not available.
Flu Activity Not available.
METAR KGLR 311353Z AUTO 23007KT 1SM BR OVC002 18/18 A3005 RMK AO2 SLP174 T01780178
Pressure 30.05 in
Visibility 1.0 miles
Clouds Overcast 200 ft
Dew Point 62 °F
Humidity 93%
Rainfall 0.00 in
Snow Depth Not available.
UV 1 out of 12
Pollen 10.50 out of 12
Air Quality Not available.
Flu Activity Not available.
METAR KGLR 311353Z AUTO 23007KT 1SM BR OVC002 18/18 A3005 RMK AO2 SLP174 T01780178
Nowcast | as of 10:00 am EDT on August 31, 2015

At 11 am...partly cloudy. Temperature 72. West winds 7 mph. At 1 PM...partly cloudy. Temperature 81. West winds 6 mph. At 3 PM...mostly clear. Temperature 85. West winds 6 mph. At 5 PM...mostly clear. Temperature 85. Southwest winds 6 mph.

×

10-Day Weather Forecast

×

Almanac

Astronomy

Aug. 31, 2015 Rise Set
Actual Time
Civil Twilight
Nautical Twilight
Astronomical Twilight
Moon
Length of Visible Light
Length of Day
Tomorrow will be .
, % of the Moon is Illuminated

Today's Extremes

State Highs State Lows

Community

WunderPhotos

Upload Photos

1,851,248 photos uploaded!

WunderBlogs® & News

Nearby

Air Quality

  Air Quality AQ Index Pollutant
Not available.

Snow Depth

Station Depth Elevation

Earthquake Activity

City Distance Mag. Time & Date
Minimum magnitude displayed is 2.5.

Coastal Water Temperatures

Place Temperature

Stations

Nearby Weather Stations

Station Location Temp. Windchill Dew Point Humidity Wind Precip. Elev Updated Type